sensor_id;sensor_type;location;lat;lon;timestamp;pressure;altitude;pressure_sealevel;temperature;humidity
8294;BME280;4185;41.506;24.938;2023-02-20T00:00:36;93652.75;;;4.71;83.02
8294;BME280;4185;41.506;24.938;2023-02-20T00:03:05;93655.59;;;4.68;83.19
8294;BME280;4185;41.506;24.938;2023-02-20T00:05:32;93655.16;;;4.69;83.43
8294;BME280;4185;41.506;24.938;2023-02-20T00:07:59;93653.97;;;4.79;83.46
8294;BME280;4185;41.506;24.938;2023-02-20T00:10:26;93656.69;;;4.88;83.04
8294;BME280;4185;41.506;24.938;2023-02-20T00:12:53;93647.88;;;4.88;82.93
8294;BME280;4185;41.506;24.938;2023-02-20T00:15:21;93653.69;;;4.86;83.81
8294;BME280;4185;41.506;24.938;2023-02-20T00:17:48;93659.53;;;4.85;82.53
8294;BME280;4185;41.506;24.938;2023-02-20T00:20:19;93657.28;;;4.83;82.01
8294;BME280;4185;41.506;24.938;2023-02-20T00:22:47;93664.44;;;4.77;82.00
8294;BME280;4185;41.506;24.938;2023-02-20T00:25:14;93662.31;;;4.72;82.24
8294;BME280;4185;41.506;24.938;2023-02-20T00:27:41;93670.22;;;4.67;82.04
8294;BME280;4185;41.506;24.938;2023-02-20T00:30:12;93668.09;;;4.62;82.46
8294;BME280;4185;41.506;24.938;2023-02-20T00:32:40;93668.25;;;4.58;82.04
8294;BME280;4185;41.506;24.938;2023-02-20T00:35:08;93664.50;;;4.56;82.43
8294;BME280;4185;41.506;24.938;2023-02-20T00:37:36;93665.72;;;4.55;82.57
8294;BME280;4185;41.506;24.938;2023-02-20T00:40:05;93667.97;;;4.56;82.54
8294;BME280;4185;41.506;24.938;2023-02-20T00:42:32;93664.81;;;4.58;81.73
8294;BME280;4185;41.506;24.938;2023-02-20T00:44:59;93666.44;;;4.46;82.48
8294;BME280;4185;41.506;24.938;2023-02-20T00:47:26;93672.38;;;4.41;82.89
8294;BME280;4185;41.506;24.938;2023-02-20T00:49:52;93667.28;;;4.43;83.17
8294;BME280;4185;41.506;24.938;2023-02-20T00:52:19;93667.28;;;4.43;83.65
8294;BME280;4185;41.506;24.938;2023-02-20T00:54:47;93678.16;;;4.40;83.25
8294;BME280;4185;41.506;24.938;2023-02-20T00:57:14;93662.47;;;4.29;82.77
8294;BME280;4185;41.506;24.938;2023-02-20T00:59:41;93668.09;;;4.22;83.88
8294;BME280;4185;41.506;24.938;2023-02-20T01:02:08;93657.03;;;4.20;84.88
8294;BME280;4185;41.506;24.938;2023-02-20T01:04:35;93658.50;;;4.21;84.49
8294;BME280;4185;41.506;24.938;2023-02-20T01:07:02;93669.47;;;4.27;85.48
8294;BME280;4185;41.506;24.938;2023-02-20T01:09:28;93667.84;;;4.29;85.19
8294;BME280;4185;41.506;24.938;2023-02-20T01:11:56;93672.59;;;4.25;83.93
8294;BME280;4185;41.506;24.938;2023-02-20T01:14:23;93674.75;;;4.09;84.30
8294;BME280;4185;41.506;24.938;2023-02-20T01:16:52;93676.34;;;4.06;85.21
8294;BME280;4185;41.506;24.938;2023-02-20T01:19:20;93658.13;;;4.01;84.47
8294;BME280;4185;41.506;24.938;2023-02-20T01:21:47;93657.25;;;4.04;84.68
8294;BME280;4185;41.506;24.938;2023-02-20T01:24:16;93654.69;;;4.01;85.17
8294;BME280;4185;41.506;24.938;2023-02-20T01:26:44;93658.00;;;4.05;85.96
8294;BME280;4185;41.506;24.938;2023-02-20T01:29:13;93658.44;;;4.03;86.29
8294;BME280;4185;41.506;24.938;2023-02-20T01:31:46;93654.28;;;4.11;85.73
8294;BME280;4185;41.506;24.938;2023-02-20T01:34:12;93647.88;;;4.09;86.49
8294;BME280;4185;41.506;24.938;2023-02-20T01:36:44;93651.34;;;4.18;85.91
8294;BME280;4185;41.506;24.938;2023-02-20T01:39:11;93667.47;;;4.18;85.02
8294;BME280;4185;41.506;24.938;2023-02-20T01:41:38;93663.91;;;4.21;84.82
8294;BME280;4185;41.506;24.938;2023-02-20T01:44:04;93659.28;;;4.22;84.30
8294;BME280;4185;41.506;24.938;2023-02-20T01:46:48;93663.72;;;4.16;84.19
8294;BME280;4185;41.506;24.938;2023-02-20T01:49:20;93665.84;;;3.99;84.35
8294;BME280;4185;41.506;24.938;2023-02-20T01:51:51;93669.56;;;3.93;84.27
8294;BME280;4185;41.506;24.938;2023-02-20T01:54:20;93659.75;;;3.99;84.67
8294;BME280;4185;41.506;24.938;2023-02-20T01:56:49;93661.13;;;4.03;84.93
8294;BME280;4185;41.506;24.938;2023-02-20T01:59:18;93671.63;;;4.10;84.46
8294;BME280;4185;41.506;24.938;2023-02-20T02:01:47;93663.22;;;4.08;83.52
8294;BME280;4185;41.506;24.938;2023-02-20T02:04:14;93669.25;;;4.12;83.94
8294;BME280;4185;41.506;24.938;2023-02-20T02:06:45;93676.91;;;4.01;83.93
8294;BME280;4185;41.506;24.938;2023-02-20T02:09:20;93662.63;;;4.04;84.01
8294;BME280;4185;41.506;24.938;2023-02-20T02:11:49;93668.41;;;4.03;83.68
8294;BME280;4185;41.506;24.938;2023-02-20T02:14:16;93659.38;;;4.09;83.49
8294;BME280;4185;41.506;24.938;2023-02-20T02:16:52;93658.13;;;4.01;83.47
8294;BME280;4185;41.506;24.938;2023-02-20T02:19:45;93661.00;;;4.07;83.56
8294;BME280;4185;41.506;24.938;2023-02-20T02:22:42;93670.63;;;3.95;83.54
8294;BME280;4185;41.506;24.938;2023-02-20T02:25:26;93676.38;;;3.85;83.79
8294;BME280;4185;41.506;24.938;2023-02-20T02:28:29;93670.75;;;3.70;84.35
8294;BME280;4185;41.506;24.938;2023-02-20T02:31:31;93673.38;;;3.61;85.29
8294;BME280;4185;41.506;24.938;2023-02-20T02:34:36;93689.56;;;3.70;85.69
8294;BME280;4185;41.506;24.938;2023-02-20T02:37:15;93687.63;;;3.70;86.66
8294;BME280;4185;41.506;24.938;2023-02-20T02:39:47;93684.63;;;3.68;86.93
8294;BME280;4185;41.506;24.938;2023-02-20T02:42:20;93697.69;;;3.79;86.33
8294;BME280;4185;41.506;24.938;2023-02-20T02:44:54;93700.25;;;3.83;85.56
8294;BME280;4185;41.506;24.938;2023-02-20T02:47:26;93704.38;;;3.74;85.38
8294;BME280;4185;41.506;24.938;2023-02-20T02:50:00;93703.50;;;3.78;85.60
8294;BME280;4185;41.506;24.938;2023-02-20T02:52:29;93706.81;;;3.82;85.01
8294;BME280;4185;41.506;24.938;2023-02-20T02:55:15;93710.25;;;3.82;84.57
8294;BME280;4185;41.506;24.938;2023-02-20T02:57:42;93709.94;;;3.80;84.25
8294;BME280;4185;41.506;24.938;2023-02-20T03:00:12;93714.00;;;3.85;84.05
8294;BME280;4185;41.506;24.938;2023-02-20T03:02:44;93712.50;;;3.84;84.15
8294;BME280;4185;41.506;24.938;2023-02-20T03:05:15;93733.16;;;3.74;83.45
8294;BME280;4185;41.506;24.938;2023-02-20T03:07:46;93731.22;;;3.74;84.70
8294;BME280;4185;41.506;24.938;2023-02-20T03:10:17;93750.47;;;3.73;85.29
8294;BME280;4185;41.506;24.938;2023-02-20T03:12:48;93737.59;;;3.68;85.08
8294;BME280;4185;41.506;24.938;2023-02-20T03:15:20;93732.13;;;3.59;84.89
8294;BME280;4185;41.506;24.938;2023-02-20T03:18:03;93731.81;;;3.57;85.77
8294;BME280;4185;41.506;24.938;2023-02-20T03:20:35;93722.81;;;3.51;85.59
8294;BME280;4185;41.506;24.938;2023-02-20T03:23:05;93719.59;;;3.56;86.07
8294;BME280;4185;41.506;24.938;2023-02-20T03:25:36;93725.84;;;3.53;85.66
8294;BME280;4185;41.506;24.938;2023-02-20T03:28:07;93730.88;;;3.51;85.34
8294;BME280;4185;41.506;24.938;2023-02-20T03:30:37;93723.50;;;3.42;86.42
8294;BME280;4185;41.506;24.938;2023-02-20T03:33:10;93738.34;;;3.34;86.14
8294;BME280;4185;41.506;24.938;2023-02-20T03:35:56;93749.81;;;3.35;86.21
8294;BME280;4185;41.506;24.938;2023-02-20T03:38:47;93751.34;;;3.36;86.47
8294;BME280;4185;41.506;24.938;2023-02-20T03:41:34;93755.50;;;3.37;86.30
8294;BME280;4185;41.506;24.938;2023-02-20T03:44:20;93758.28;;;3.46;86.10
8294;BME280;4185;41.506;24.938;2023-02-20T03:46:51;93756.66;;;3.48;85.79
8294;BME280;4185;41.506;24.938;2023-02-20T03:49:24;93766.03;;;3.44;85.47
8294;BME280;4185;41.506;24.938;2023-02-20T03:51:53;93763.66;;;3.46;85.96
8294;BME280;4185;41.506;24.938;2023-02-20T03:54:22;93759.16;;;3.43;85.69
8294;BME280;4185;41.506;24.938;2023-02-20T03:56:52;93764.75;;;3.36;85.46
8294;BME280;4185;41.506;24.938;2023-02-20T03:59:22;93766.34;;;3.33;85.29
8294;BME280;4185;41.506;24.938;2023-02-20T04:01:53;93769.47;;;3.32;86.66
8294;BME280;4185;41.506;24.938;2023-02-20T04:04:27;93779.34;;;3.35;87.03
8294;BME280;4185;41.506;24.938;2023-02-20T04:06:56;93783.56;;;3.36;86.94
8294;BME280;4185;41.506;24.938;2023-02-20T04:09:29;93780.97;;;3.45;87.13
8294;BME280;4185;41.506;24.938;2023-02-20T04:12:03;93781.25;;;3.47;86.11
8294;BME280;4185;41.506;24.938;2023-02-20T04:14:31;93779.00;;;3.45;86.12
8294;BME280;4185;41.506;24.938;2023-02-20T04:17:05;93787.91;;;3.55;86.26
8294;BME280;4185;41.506;24.938;2023-02-20T04:19:33;93789.97;;;3.51;85.51
8294;BME280;4185;41.506;24.938;2023-02-20T04:22:02;93785.13;;;3.46;85.97
8294;BME280;4185;41.506;24.938;2023-02-20T04:24:35;93788.81;;;3.39;86.21
8294;BME280;4185;41.506;24.938;2023-02-20T04:27:04;93793.75;;;3.41;85.85
8294;BME280;4185;41.506;24.938;2023-02-20T04:29:31;93788.91;;;3.36;86.25
8294;BME280;4185;41.506;24.938;2023-02-20T04:31:58;93783.97;;;3.34;86.26
8294;BME280;4185;41.506;24.938;2023-02-20T04:34:25;93774.22;;;3.28;86.36
8294;BME280;4185;41.506;24.938;2023-02-20T04:37:03;93771.22;;;3.26;85.80
8294;BME280;4185;41.506;24.938;2023-02-20T04:39:32;93767.66;;;3.29;86.88
8294;BME280;4185;41.506;24.938;2023-02-20T04:41:59;93759.22;;;3.18;86.42
8294;BME280;4185;41.506;24.938;2023-02-20T04:44:26;93761.56;;;3.16;87.02
8294;BME280;4185;41.506;24.938;2023-02-20T04:47:01;93762.13;;;3.11;87.80
8294;BME280;4185;41.506;24.938;2023-02-20T04:49:29;93767.47;;;3.11;88.63
8294;BME280;4185;41.506;24.938;2023-02-20T04:51:56;93769.06;;;3.21;87.80
8294;BME280;4185;41.506;24.938;2023-02-20T04:54:22;93765.09;;;3.25;87.83
8294;BME280;4185;41.506;24.938;2023-02-20T04:56:51;93770.34;;;3.29;88.00
8294;BME280;4185;41.506;24.938;2023-02-20T04:59:18;93779.88;;;3.30;87.65
8294;BME280;4185;41.506;24.938;2023-02-20T05:01:45;93777.63;;;3.41;88.06
8294;BME280;4185;41.506;24.938;2023-02-20T05:04:16;93774.28;;;3.37;87.12
8294;BME280;4185;41.506;24.938;2023-02-20T05:06:46;93774.63;;;3.39;87.77
8294;BME280;4185;41.506;24.938;2023-02-20T05:09:14;93770.78;;;3.40;88.23
8294;BME280;4185;41.506;24.938;2023-02-20T05:11:41;93778.38;;;3.41;88.19
8294;BME280;4185;41.506;24.938;2023-02-20T05:14:09;93786.63;;;3.47;88.18
8294;BME280;4185;41.506;24.938;2023-02-20T05:16:36;93792.53;;;3.54;87.84
8294;BME280;4185;41.506;24.938;2023-02-20T05:19:04;93796.09;;;3.51;86.96
8294;BME280;4185;41.506;24.938;2023-02-20T05:21:30;93800.72;;;3.38;86.28
8294;BME280;4185;41.506;24.938;2023-02-20T05:24:15;93801.06;;;3.28;86.41
8294;BME280;4185;41.506;24.938;2023-02-20T05:26:42;93798.69;;;3.30;86.99
8294;BME280;4185;41.506;24.938;2023-02-20T05:29:10;93804.16;;;3.39;87.05
8294;BME280;4185;41.506;24.938;2023-02-20T05:31:38;93804.69;;;3.34;87.87
8294;BME280;4185;41.506;24.938;2023-02-20T05:34:05;93789.47;;;3.31;87.55
8294;BME280;4185;41.506;24.938;2023-02-20T05:36:32;93790.09;;;3.35;87.61
8294;BME280;4185;41.506;24.938;2023-02-20T05:38:59;93798.69;;;3.42;88.16
8294;BME280;4185;41.506;24.938;2023-02-20T05:41:26;93807.50;;;3.43;87.59
8294;BME280;4185;41.506;24.938;2023-02-20T05:43:53;93797.63;;;3.40;86.83
8294;BME280;4185;41.506;24.938;2023-02-20T05:46:23;93804.59;;;3.37;86.93
8294;BME280;4185;41.506;24.938;2023-02-20T05:48:51;93823.81;;;3.36;86.44
8294;BME280;4185;41.506;24.938;2023-02-20T05:51:20;93804.69;;;3.34;86.63
8294;BME280;4185;41.506;24.938;2023-02-20T05:53:47;93828.44;;;3.48;86.36
8294;BME280;4185;41.506;24.938;2023-02-20T05:56:14;93832.06;;;3.54;85.63
8294;BME280;4185;41.506;24.938;2023-02-20T05:58:41;93842.19;;;3.50;85.11
8294;BME280;4185;41.506;24.938;2023-02-20T06:01:15;93852.69;;;3.44;85.30
8294;BME280;4185;41.506;24.938;2023-02-20T06:03:43;93850.13;;;3.41;85.42
8294;BME280;4185;41.506;24.938;2023-02-20T06:06:10;93865.56;;;3.37;85.21
8294;BME280;4185;41.506;24.938;2023-02-20T06:08:37;93872.47;;;3.38;85.29
8294;BME280;4185;41.506;24.938;2023-02-20T06:11:05;93863.75;;;3.34;85.26
8294;BME280;4185;41.506;24.938;2023-02-20T06:13:32;93867.22;;;3.34;85.37
8294;BME280;4185;41.506;24.938;2023-02-20T06:15:58;93875.47;;;3.52;85.14
8294;BME280;4185;41.506;24.938;2023-02-20T06:18:25;93897.06;;;3.49;84.48
8294;BME280;4185;41.506;24.938;2023-02-20T06:20:54;93893.72;;;3.57;84.18
8294;BME280;4185;41.506;24.938;2023-02-20T06:23:21;93886.09;;;3.68;83.86
8294;BME280;4185;41.506;24.938;2023-02-20T06:25:48;93876.94;;;3.79;83.91
8294;BME280;4185;41.506;24.938;2023-02-20T06:28:14;93883.03;;;3.79;84.21
8294;BME280;4185;41.506;24.938;2023-02-20T06:30:41;93892.94;;;3.82;84.78
8294;BME280;4185;41.506;24.938;2023-02-20T06:33:08;93887.66;;;3.91;84.01
8294;BME280;4185;41.506;24.938;2023-02-20T06:35:35;93893.22;;;3.97;83.58
8294;BME280;4185;41.506;24.938;2023-02-20T06:38:03;93895.91;;;4.09;83.59
8294;BME280;4185;41.506;24.938;2023-02-20T06:40:29;93894.81;;;4.19;83.39
8294;BME280;4185;41.506;24.938;2023-02-20T06:42:56;93881.09;;;4.26;82.98
8294;BME280;4185;41.506;24.938;2023-02-20T06:45:23;93867.25;;;4.28;82.71
8294;BME280;4185;41.506;24.938;2023-02-20T06:47:50;93873.44;;;4.37;82.96
8294;BME280;4185;41.506;24.938;2023-02-20T06:50:17;93882.88;;;4.42;83.00
8294;BME280;4185;41.506;24.938;2023-02-20T06:52:44;93885.19;;;4.52;82.40
8294;BME280;4185;41.506;24.938;2023-02-20T06:55:13;93883.19;;;4.65;82.51
8294;BME280;4185;41.506;24.938;2023-02-20T06:57:39;93883.34;;;4.83;82.49
8294;BME280;4185;41.506;24.938;2023-02-20T07:00:07;93879.78;;;4.95;81.22
8294;BME280;4185;41.506;24.938;2023-02-20T07:02:35;93877.28;;;5.01;81.33
8294;BME280;4185;41.506;24.938;2023-02-20T07:05:02;93876.16;;;5.11;81.67
8294;BME280;4185;41.506;24.938;2023-02-20T07:07:29;93871.72;;;5.26;80.11
8294;BME280;4185;41.506;24.938;2023-02-20T07:09:56;93865.19;;;5.36;81.25
8294;BME280;4185;41.506;24.938;2023-02-20T07:12:29;93870.19;;;5.47;80.31
8294;BME280;4185;41.506;24.938;2023-02-20T07:14:56;93871.72;;;5.57;79.78
8294;BME280;4185;41.506;24.938;2023-02-20T07:17:23;93866.81;;;5.73;80.57
8294;BME280;4185;41.506;24.938;2023-02-20T07:19:50;93859.56;;;5.92;80.22
8294;BME280;4185;41.506;24.938;2023-02-20T07:22:16;93859.47;;;6.13;80.13
8294;BME280;4185;41.506;24.938;2023-02-20T07:24:49;93857.81;;;6.25;78.37
8294;BME280;4185;41.506;24.938;2023-02-20T07:27:16;93845.81;;;6.35;78.45
8294;BME280;4185;41.506;24.938;2023-02-20T07:29:45;93856.31;;;6.42;78.37
8294;BME280;4185;41.506;24.938;2023-02-20T07:32:12;93863.22;;;6.43;78.14
8294;BME280;4185;41.506;24.938;2023-02-20T07:34:39;93865.91;;;6.52;76.99
8294;BME280;4185;41.506;24.938;2023-02-20T07:37:06;93854.34;;;6.70;76.05
8294;BME280;4185;41.506;24.938;2023-02-20T07:39:33;93862.59;;;6.93;75.63
8294;BME280;4185;41.506;24.938;2023-02-20T07:42:00;93862.84;;;7.13;76.12
8294;BME280;4185;41.506;24.938;2023-02-20T07:44:27;93864.00;;;7.30;72.76
8294;BME280;4185;41.506;24.938;2023-02-20T07:46:55;93857.63;;;7.42;72.38
8294;BME280;4185;41.506;24.938;2023-02-20T07:49:22;93864.63;;;7.58;65.09
8294;BME280;4185;41.506;24.938;2023-02-20T07:51:49;93852.19;;;7.84;65.03
8294;BME280;4185;41.506;24.938;2023-02-20T07:54:15;93840.06;;;8.03;61.62
8294;BME280;4185;41.506;24.938;2023-02-20T07:56:43;93843.47;;;8.36;52.91
8294;BME280;4185;41.506;24.938;2023-02-20T07:59:10;93850.41;;;8.52;53.94
8294;BME280;4185;41.506;24.938;2023-02-20T08:01:40;93854.06;;;8.63;52.74
8294;BME280;4185;41.506;24.938;2023-02-20T08:04:09;93856.44;;;8.85;50.46
8294;BME280;4185;41.506;24.938;2023-02-20T08:06:35;93858.88;;;9.12;47.39
8294;BME280;4185;41.506;24.938;2023-02-20T08:09:02;93857.66;;;9.42;44.77
8294;BME280;4185;41.506;24.938;2023-02-20T08:11:32;93864.28;;;9.56;45.11
8294;BME280;4185;41.506;24.938;2023-02-20T08:14:03;93865.59;;;9.60;45.18
8294;BME280;4185;41.506;24.938;2023-02-20T08:16:34;93857.91;;;9.73;44.44
8294;BME280;4185;41.506;24.938;2023-02-20T08:19:01;93859.56;;;9.85;42.68
8294;BME280;4185;41.506;24.938;2023-02-20T08:21:29;93878.22;;;9.98;41.93
8294;BME280;4185;41.506;24.938;2023-02-20T08:23:56;93884.50;;;10.04;40.46
8294;BME280;4185;41.506;24.938;2023-02-20T08:26:23;93876.00;;;10.11;42.71
8294;BME280;4185;41.506;24.938;2023-02-20T08:28:51;93868.66;;;10.17;41.69
8294;BME280;4185;41.506;24.938;2023-02-20T08:31:18;93868.59;;;10.32;41.92
8294;BME280;4185;41.506;24.938;2023-02-20T08:33:45;93868.47;;;10.41;40.78
8294;BME280;4185;41.506;24.938;2023-02-20T08:36:12;93864.88;;;10.49;39.49
8294;BME280;4185;41.506;24.938;2023-02-20T08:38:44;93852.56;;;10.54;40.27
8294;BME280;4185;41.506;24.938;2023-02-20T08:41:14;93858.06;;;10.59;40.59
8294;BME280;4185;41.506;24.938;2023-02-20T08:43:42;93854.69;;;10.64;40.20
8294;BME280;4185;41.506;24.938;2023-02-20T08:46:09;93851.88;;;10.79;38.41
8294;BME280;4185;41.506;24.938;2023-02-20T08:48:36;93862.72;;;10.99;36.28
8294;BME280;4185;41.506;24.938;2023-02-20T08:51:04;93852.97;;;11.13;36.63
8294;BME280;4185;41.506;24.938;2023-02-20T08:53:31;93858.50;;;11.24;36.24
8294;BME280;4185;41.506;24.938;2023-02-20T08:56:00;93858.81;;;11.31;35.12
8294;BME280;4185;41.506;24.938;2023-02-20T08:58:26;93860.41;;;11.43;34.12
8294;BME280;4185;41.506;24.938;2023-02-20T09:00:53;93860.41;;;11.43;33.49
8294;BME280;4185;41.506;24.938;2023-02-20T09:03:20;93856.88;;;11.37;32.89
8294;BME280;4185;41.506;24.938;2023-02-20T09:05:48;93870.63;;;11.54;32.38
8294;BME280;4185;41.506;24.938;2023-02-20T09:08:15;93866.81;;;11.66;32.71
8294;BME280;4185;41.506;24.938;2023-02-20T09:10:41;93864.19;;;11.82;31.39
8294;BME280;4185;41.506;24.938;2023-02-20T09:13:10;93865.97;;;11.85;31.33
8294;BME280;4185;41.506;24.938;2023-02-20T09:15:37;93862.53;;;11.90;31.05
8294;BME280;4185;41.506;24.938;2023-02-20T09:18:04;93852.19;;;12.00;29.61
8294;BME280;4185;41.506;24.938;2023-02-20T09:20:34;93864.44;;;12.15;30.51
8294;BME280;4185;41.506;24.938;2023-02-20T09:23:02;93867.47;;;12.28;29.63
8294;BME280;4185;41.506;24.938;2023-02-20T09:25:29;93856.63;;;12.40;29.81
8294;BME280;4185;41.506;24.938;2023-02-20T09:27:56;93864.81;;;12.45;29.38
8294;BME280;4185;41.506;24.938;2023-02-20T09:30:24;93872.28;;;12.50;28.78
8294;BME280;4185;41.506;24.938;2023-02-20T09:32:51;93863.41;;;12.61;28.59
8294;BME280;4185;41.506;24.938;2023-02-20T09:35:21;93855.03;;;12.70;28.78
8294;BME280;4185;41.506;24.938;2023-02-20T09:37:48;93865.22;;;12.86;27.58
8294;BME280;4185;41.506;24.938;2023-02-20T09:40:16;93866.75;;;12.98;27.03
8294;BME280;4185;41.506;24.938;2023-02-20T09:42:53;93870.31;;;13.15;27.28
8294;BME280;4185;41.506;24.938;2023-02-20T09:45:26;93875.75;;;13.26;26.23
8294;BME280;4185;41.506;24.938;2023-02-20T09:48:06;93874.06;;;13.34;26.36
8294;BME280;4185;41.506;24.938;2023-02-20T09:50:41;93877.78;;;13.42;26.47
8294;BME280;4185;41.506;24.938;2023-02-20T09:53:18;93879.28;;;13.54;25.42
8294;BME280;4185;41.506;24.938;2023-02-20T09:55:48;93876.81;;;13.67;26.12
8294;BME280;4185;41.506;24.938;2023-02-20T09:58:22;93872.88;;;13.68;25.17
8294;BME280;4185;41.506;24.938;2023-02-20T10:00:57;93887.00;;;13.78;24.17
8294;BME280;4185;41.506;24.938;2023-02-20T10:03:31;93866.38;;;13.82;23.22
8294;BME280;4185;41.506;24.938;2023-02-20T10:06:00;93877.56;;;13.90;24.15
8294;BME280;4185;41.506;24.938;2023-02-20T10:08:29;93869.13;;;13.93;23.55
8294;BME280;4185;41.506;24.938;2023-02-20T10:10:59;93870.34;;;14.03;23.87
8294;BME280;4185;41.506;24.938;2023-02-20T10:13:39;93868.34;;;14.15;23.93
8294;BME280;4185;41.506;24.938;2023-02-20T10:16:19;93866.13;;;14.19;22.05
8294;BME280;4185;41.506;24.938;2023-02-20T10:18:57;93862.88;;;14.31;23.06
8294;BME280;4185;41.506;24.938;2023-02-20T10:21:38;93842.47;;;14.43;22.49
8294;BME280;4185;41.506;24.938;2023-02-20T10:24:25;93854.59;;;14.59;22.78
8294;BME280;4185;41.506;24.938;2023-02-20T10:27:00;93849.34;;;14.66;22.18
8294;BME280;4185;41.506;24.938;2023-02-20T10:29:30;93848.81;;;14.74;21.23
8294;BME280;4185;41.506;24.938;2023-02-20T10:32:04;93837.34;;;14.81;21.86
8294;BME280;4185;41.506;24.938;2023-02-20T10:34:35;93849.50;;;14.85;21.77
8294;BME280;4185;41.506;24.938;2023-02-20T10:37:09;93831.81;;;14.92;21.88
8294;BME280;4185;41.506;24.938;2023-02-20T10:39:40;93836.03;;;14.98;21.62
8294;BME280;4185;41.506;24.938;2023-02-20T10:42:15;93830.75;;;15.06;21.34
8294;BME280;4185;41.506;24.938;2023-02-20T10:44:51;93838.19;;;15.11;21.05
8294;BME280;4185;41.506;24.938;2023-02-20T10:47:23;93826.97;;;15.20;20.87
8294;BME280;4185;41.506;24.938;2023-02-20T10:49:56;93841.56;;;15.28;20.32
8294;BME280;4185;41.506;24.938;2023-02-20T10:52:27;93829.34;;;15.40;19.92
8294;BME280;4185;41.506;24.938;2023-02-20T10:54:59;93858.44;;;15.43;19.25
8294;BME280;4185;41.506;24.938;2023-02-20T10:57:33;93852.88;;;15.13;18.54
8294;BME280;4185;41.506;24.938;2023-02-20T11:00:04;93843.88;;;15.18;19.35
8294;BME280;4185;41.506;24.938;2023-02-20T11:02:39;93840.56;;;15.31;19.08
8294;BME280;4185;41.506;24.938;2023-02-20T11:05:09;93835.09;;;15.31;18.91
8294;BME280;4185;41.506;24.938;2023-02-20T11:07:36;93843.41;;;15.55;20.51
8294;BME280;4185;41.506;24.938;2023-02-20T11:10:04;93851.31;;;15.64;18.80
8294;BME280;4185;41.506;24.938;2023-02-20T11:12:33;93853.00;;;15.72;19.80
8294;BME280;4185;41.506;24.938;2023-02-20T11:15:05;93835.16;;;15.90;19.30
8294;BME280;4185;41.506;24.938;2023-02-20T11:17:35;93843.72;;;16.05;19.46
8294;BME280;4185;41.506;24.938;2023-02-20T11:20:04;93835.94;;;16.15;19.62
8294;BME280;4185;41.506;24.938;2023-02-20T11:22:41;93822.81;;;16.08;18.74
8294;BME280;4185;41.506;24.938;2023-02-20T11:25:17;93836.34;;;16.24;19.89
8294;BME280;4185;41.506;24.938;2023-02-20T11:27:46;93844.84;;;16.45;19.53
8294;BME280;4185;41.506;24.938;2023-02-20T11:30:28;93840.78;;;16.27;18.62
8294;BME280;4185;41.506;24.938;2023-02-20T11:33:01;93826.97;;;16.38;19.38
8294;BME280;4185;41.506;24.938;2023-02-20T11:35:33;93836.97;;;16.60;19.63
8294;BME280;4185;41.506;24.938;2023-02-20T11:38:23;93828.31;;;16.74;19.29
8294;BME280;4185;41.506;24.938;2023-02-20T11:41:06;93823.94;;;16.84;19.50
8294;BME280;4185;41.506;24.938;2023-02-20T11:43:34;93828.34;;;16.93;18.65
8294;BME280;4185;41.506;24.938;2023-02-20T11:46:13;93825.69;;;16.87;18.95
8294;BME280;4185;41.506;24.938;2023-02-20T11:48:58;93821.97;;;17.03;18.89
8294;BME280;4185;41.506;24.938;2023-02-20T11:51:34;93817.34;;;17.12;18.81
8294;BME280;4185;41.506;24.938;2023-02-20T11:54:11;93810.25;;;17.22;19.59
8294;BME280;4185;41.506;24.938;2023-02-20T11:56:59;93813.94;;;17.43;19.03
8294;BME280;4185;41.506;24.938;2023-02-20T11:59:32;93818.25;;;17.57;19.04
8294;BME280;4185;41.506;24.938;2023-02-20T12:02:24;93814.25;;;17.71;18.60
8294;BME280;4185;41.506;24.938;2023-02-20T12:05:11;93812.41;;;17.79;19.13
8294;BME280;4185;41.506;24.938;2023-02-20T12:07:53;93815.47;;;17.88;18.63
8294;BME280;4185;41.506;24.938;2023-02-20T12:10:29;93826.78;;;17.85;18.45
8294;BME280;4185;41.506;24.938;2023-02-20T12:13:01;93833.78;;;17.86;18.58
8294;BME280;4185;41.506;24.938;2023-02-20T12:15:36;93827.47;;;18.04;18.47
8294;BME280;4185;41.506;24.938;2023-02-20T12:21:19;93842.72;;;18.18;17.94
8294;BME280;4185;41.506;24.938;2023-02-20T12:23:59;93855.00;;;18.30;18.02
8294;BME280;4185;41.506;24.938;2023-02-20T12:26:40;93841.91;;;18.36;17.86
8294;BME280;4185;41.506;24.938;2023-02-20T12:29:21;93845.59;;;18.39;17.87
8294;BME280;4185;41.506;24.938;2023-02-20T12:31:59;93835.81;;;18.43;18.09
8294;BME280;4185;41.506;24.938;2023-02-20T12:37:39;93848.50;;;18.59;17.88
8294;BME280;4185;41.506;24.938;2023-02-20T12:40:23;93834.09;;;18.79;17.83
8294;BME280;4185;41.506;24.938;2023-02-20T12:42:59;93852.06;;;19.06;17.74
8294;BME280;4185;41.506;24.938;2023-02-20T12:45:35;93856.19;;;19.13;17.64
8294;BME280;4185;41.506;24.938;2023-02-20T12:48:18;93851.41;;;19.13;17.49
8294;BME280;4185;41.506;24.938;2023-02-20T12:50:57;93838.94;;;18.99;17.01
8294;BME280;4185;41.506;24.938;2023-02-20T12:53:45;93840.72;;;19.36;17.64
8294;BME280;4185;41.506;24.938;2023-02-20T12:56:27;93830.19;;;19.48;17.66
8294;BME280;4185;41.506;24.938;2023-02-20T12:59:05;93851.50;;;19.34;17.87
8294;BME280;4185;41.506;24.938;2023-02-20T13:01:34;93838.41;;;19.61;17.53
8294;BME280;4185;41.506;24.938;2023-02-20T13:04:05;93836.66;;;19.71;17.56
8294;BME280;4185;41.506;24.938;2023-02-20T13:06:43;93829.56;;;19.75;17.04
8294;BME280;4185;41.506;24.938;2023-02-20T13:09:19;93826.72;;;19.68;17.47
8294;BME280;4185;41.506;24.938;2023-02-20T13:11:50;93845.41;;;19.62;17.46
8294;BME280;4185;41.506;24.938;2023-02-20T13:14:27;93841.63;;;19.52;17.70
8294;BME280;4185;41.506;24.938;2023-02-20T13:17:02;93843.03;;;19.66;17.44
8294;BME280;4185;41.506;24.938;2023-02-20T13:19:38;93838.53;;;19.76;17.57
8294;BME280;4185;41.506;24.938;2023-02-20T13:22:05;93839.56;;;19.65;17.35
8294;BME280;4185;41.506;24.938;2023-02-20T13:24:35;93836.94;;;19.60;17.39
8294;BME280;4185;41.506;24.938;2023-02-20T13:27:03;93834.25;;;19.88;17.58
8294;BME280;4185;41.506;24.938;2023-02-20T13:29:34;93837.09;;;20.16;17.72
8294;BME280;4185;41.506;24.938;2023-02-20T13:32:04;93843.66;;;20.13;17.69
8294;BME280;4185;41.506;24.938;2023-02-20T13:34:47;93839.00;;;20.08;18.07
8294;BME280;4185;41.506;24.938;2023-02-20T13:40:44;93833.56;;;19.95;17.93
8294;BME280;4185;41.506;24.938;2023-02-20T13:43:30;93835.53;;;20.07;17.98
8294;BME280;4185;41.506;24.938;2023-02-20T13:46:24;93832.84;;;19.94;16.99
8294;BME280;4185;41.506;24.938;2023-02-20T13:48:54;93830.16;;;20.22;17.27